sensor_id;sensor_type;location;lat;lon;timestamp;temperature;humidity
13123;DHT22;6627;50.920;12.050;2022-08-06T00:02:12;17.10;99.90
13123;DHT22;6627;50.920;12.050;2022-08-06T00:04:39;17.00;99.90
13123;DHT22;6627;50.920;12.050;2022-08-06T00:07:06;16.90;99.90
13123;DHT22;6627;50.920;12.050;2022-08-06T00:09:33;16.70;99.90
13123;DHT22;6627;50.920;12.050;2022-08-06T00:12:01;16.60;99.90
13123;DHT22;6627;50.920;12.050;2022-08-06T00:14:31;16.60;99.90
13123;DHT22;6627;50.920;12.050;2022-08-06T00:17:01;16.50;99.90
13123;DHT22;6627;50.920;12.050;2022-08-06T00:19:28;16.10;99.90
13123;DHT22;6627;50.920;12.050;2022-08-06T00:21:55;16.00;99.90
13123;DHT22;6627;50.920;12.050;2022-08-06T00:24:23;16.10;99.90
13123;DHT22;6627;50.920;12.050;2022-08-06T00:26:50;15.90;99.90
13123;DHT22;6627;50.920;12.050;2022-08-06T00:29:17;15.60;99.90
13123;DHT22;6627;50.920;12.050;2022-08-06T00:31:44;15.60;99.90
13123;DHT22;6627;50.920;12.050;2022-08-06T00:34:13;15.50;99.90
13123;DHT22;6627;50.920;12.050;2022-08-06T00:36:40;15.60;99.90
13123;DHT22;6627;50.920;12.050;2022-08-06T00:39:07;15.70;99.90
13123;DHT22;6627;50.920;12.050;2022-08-06T00:41:35;15.40;99.90
13123;DHT22;6627;50.920;12.050;2022-08-06T00:44:04;15.40;99.90
13123;DHT22;6627;50.920;12.050;2022-08-06T00:46:31;15.30;99.90
13123;DHT22;6627;50.920;12.050;2022-08-06T00:48:58;15.30;99.90
13123;DHT22;6627;50.920;12.050;2022-08-06T00:51:26;15.30;99.90
13123;DHT22;6627;50.920;12.050;2022-08-06T00:53:54;15.00;99.90
13123;DHT22;6627;50.920;12.050;2022-08-06T00:56:21;14.90;99.90
13123;DHT22;6627;50.920;12.050;2022-08-06T00:58:48;14.80;99.90
13123;DHT22;6627;50.920;12.050;2022-08-06T01:01:15;14.90;99.90
13123;DHT22;6627;50.920;12.050;2022-08-06T01:03:43;14.90;99.90
13123;DHT22;6627;50.920;12.050;2022-08-06T01:06:10;14.80;99.90
13123;DHT22;6627;50.920;12.050;2022-08-06T01:08:39;14.80;99.90
13123;DHT22;6627;50.920;12.050;2022-08-06T01:11:06;14.60;99.90
13123;DHT22;6627;50.920;12.050;2022-08-06T01:13:33;14.40;99.90
13123;DHT22;6627;50.920;12.050;2022-08-06T01:16:07;14.40;99.90
13123;DHT22;6627;50.920;12.050;2022-08-06T01:18:44;14.30;99.90
13123;DHT22;6627;50.920;12.050;2022-08-06T01:21:28;14.30;99.90
13123;DHT22;6627;50.920;12.050;2022-08-06T01:24:33;14.30;99.90
13123;DHT22;6627;50.920;12.050;2022-08-06T01:27:36;14.20;99.90
13123;DHT22;6627;50.920;12.050;2022-08-06T01:30:10;14.10;99.90
13123;DHT22;6627;50.920;12.050;2022-08-06T01:32:45;14.10;99.90
13123;DHT22;6627;50.920;12.050;2022-08-06T01:35:18;14.10;99.90
13123;DHT22;6627;50.920;12.050;2022-08-06T01:37:55;14.10;99.90
13123;DHT22;6627;50.920;12.050;2022-08-06T01:40:29;14.10;99.90
13123;DHT22;6627;50.920;12.050;2022-08-06T01:43:02;14.10;99.90
13123;DHT22;6627;50.920;12.050;2022-08-06T01:45:33;14.00;99.90
13123;DHT22;6627;50.920;12.050;2022-08-06T01:48:06;14.10;99.90
13123;DHT22;6627;50.920;12.050;2022-08-06T01:50:38;14.00;99.90
13123;DHT22;6627;50.920;12.050;2022-08-06T01:53:13;14.20;99.90
13123;DHT22;6627;50.920;12.050;2022-08-06T01:55:46;13.90;99.90
13123;DHT22;6627;50.920;12.050;2022-08-06T01:58:18;13.70;99.90
13123;DHT22;6627;50.920;12.050;2022-08-06T02:00:51;13.60;99.90
13123;DHT22;6627;50.920;12.050;2022-08-06T02:03:24;13.50;99.90
13123;DHT22;6627;50.920;12.050;2022-08-06T02:05:55;13.60;99.90
13123;DHT22;6627;50.920;12.050;2022-08-06T02:08:27;13.50;99.90
13123;DHT22;6627;50.920;12.050;2022-08-06T02:10:59;13.40;99.90
13123;DHT22;6627;50.920;12.050;2022-08-06T02:13:31;13.30;99.90
13123;DHT22;6627;50.920;12.050;2022-08-06T02:16:02;13.20;99.90
13123;DHT22;6627;50.920;12.050;2022-08-06T02:18:35;13.00;99.90
13123;DHT22;6627;50.920;12.050;2022-08-06T02:21:06;12.90;99.90
13123;DHT22;6627;50.920;12.050;2022-08-06T02:23:38;12.90;99.90
13123;DHT22;6627;50.920;12.050;2022-08-06T02:26:06;12.90;99.90
13123;DHT22;6627;50.920;12.050;2022-08-06T02:28:38;12.80;99.90
13123;DHT22;6627;50.920;12.050;2022-08-06T02:31:08;12.80;99.90
13123;DHT22;6627;50.920;12.050;2022-08-06T02:33:36;12.80;99.90
13123;DHT22;6627;50.920;12.050;2022-08-06T02:36:07;12.90;99.90
13123;DHT22;6627;50.920;12.050;2022-08-06T02:38:44;12.90;99.90
13123;DHT22;6627;50.920;12.050;2022-08-06T02:41:18;12.70;99.90
13123;DHT22;6627;50.920;12.050;2022-08-06T02:43:54;12.70;99.90
13123;DHT22;6627;50.920;12.050;2022-08-06T02:46:27;12.60;99.90
13123;DHT22;6627;50.920;12.050;2022-08-06T02:49:03;12.50;99.90
13123;DHT22;6627;50.920;12.050;2022-08-06T02:51:39;12.50;99.90
13123;DHT22;6627;50.920;12.050;2022-08-06T02:54:21;12.40;99.90
13123;DHT22;6627;50.920;12.050;2022-08-06T02:56:59;12.40;99.90
13123;DHT22;6627;50.920;12.050;2022-08-06T02:59:37;12.30;99.90
13123;DHT22;6627;50.920;12.050;2022-08-06T03:02:12;12.30;99.90
13123;DHT22;6627;50.920;12.050;2022-08-06T03:04:47;12.20;99.90
13123;DHT22;6627;50.920;12.050;2022-08-06T03:07:18;12.20;99.90
13123;DHT22;6627;50.920;12.050;2022-08-06T03:09:48;12.20;99.90
13123;DHT22;6627;50.920;12.050;2022-08-06T03:12:17;12.20;99.90
13123;DHT22;6627;50.920;12.050;2022-08-06T03:14:48;12.10;99.90
13123;DHT22;6627;50.920;12.050;2022-08-06T03:17:19;12.10;99.90
13123;DHT22;6627;50.920;12.050;2022-08-06T03:19:48;12.10;99.90
13123;DHT22;6627;50.920;12.050;2022-08-06T03:22:19;12.10;99.90
13123;DHT22;6627;50.920;12.050;2022-08-06T03:24:49;12.20;99.90
13123;DHT22;6627;50.920;12.050;2022-08-06T03:27:17;12.10;99.90
13123;DHT22;6627;50.920;12.050;2022-08-06T03:29:49;12.00;99.90
13123;DHT22;6627;50.920;12.050;2022-08-06T03:32:18;12.10;99.90
13123;DHT22;6627;50.920;12.050;2022-08-06T03:34:47;12.10;99.90
13123;DHT22;6627;50.920;12.050;2022-08-06T03:37:17;12.00;99.90
13123;DHT22;6627;50.920;12.050;2022-08-06T03:39:48;12.00;99.90
13123;DHT22;6627;50.920;12.050;2022-08-06T03:42:17;12.10;99.90
13123;DHT22;6627;50.920;12.050;2022-08-06T03:44:45;12.10;99.90
13123;DHT22;6627;50.920;12.050;2022-08-06T03:47:19;12.10;99.90
13123;DHT22;6627;50.920;12.050;2022-08-06T03:49:52;12.10;99.90
13123;DHT22;6627;50.920;12.050;2022-08-06T03:52:26;12.10;99.90
13123;DHT22;6627;50.920;12.050;2022-08-06T03:54:58;12.00;99.90
13123;DHT22;6627;50.920;12.050;2022-08-06T03:57:32;12.00;99.90
13123;DHT22;6627;50.920;12.050;2022-08-06T04:00:04;12.10;99.90
13123;DHT22;6627;50.920;12.050;2022-08-06T04:02:36;12.10;99.90
13123;DHT22;6627;50.920;12.050;2022-08-06T04:05:06;12.10;99.90
13123;DHT22;6627;50.920;12.050;2022-08-06T04:07:35;12.10;99.90
13123;DHT22;6627;50.920;12.050;2022-08-06T04:10:03;12.10;99.90
13123;DHT22;6627;50.920;12.050;2022-08-06T04:12:34;12.00;99.90
13123;DHT22;6627;50.920;12.050;2022-08-06T04:15:03;12.00;99.90
13123;DHT22;6627;50.920;12.050;2022-08-06T04:17:32;12.00;99.90
13123;DHT22;6627;50.920;12.050;2022-08-06T04:20:04;12.10;99.90
13123;DHT22;6627;50.920;12.050;2022-08-06T04:22:33;12.00;99.90
13123;DHT22;6627;50.920;12.050;2022-08-06T04:25:00;12.00;99.90
13123;DHT22;6627;50.920;12.050;2022-08-06T04:27:28;11.90;99.90
13123;DHT22;6627;50.920;12.050;2022-08-06T04:29:56;12.00;99.90
13123;DHT22;6627;50.920;12.050;2022-08-06T04:32:26;12.00;99.90
13123;DHT22;6627;50.920;12.050;2022-08-06T04:34:56;12.30;99.90
13123;DHT22;6627;50.920;12.050;2022-08-06T04:37:24;12.10;99.90
13123;DHT22;6627;50.920;12.050;2022-08-06T04:39:51;12.20;99.90
13123;DHT22;6627;50.920;12.050;2022-08-06T04:42:19;12.20;99.90
13123;DHT22;6627;50.920;12.050;2022-08-06T04:44:47;12.20;99.90
13123;DHT22;6627;50.920;12.050;2022-08-06T04:47:15;12.20;99.90
13123;DHT22;6627;50.920;12.050;2022-08-06T04:49:43;12.20;99.90
13123;DHT22;6627;50.920;12.050;2022-08-06T04:52:21;12.30;99.90
13123;DHT22;6627;50.920;12.050;2022-08-06T04:54:48;12.30;99.90
13123;DHT22;6627;50.920;12.050;2022-08-06T04:57:16;12.20;99.90
13123;DHT22;6627;50.920;12.050;2022-08-06T04:59:43;12.30;99.90
13123;DHT22;6627;50.920;12.050;2022-08-06T05:02:11;12.30;99.90
13123;DHT22;6627;50.920;12.050;2022-08-06T05:04:39;12.70;99.90
13123;DHT22;6627;50.920;12.050;2022-08-06T05:07:13;12.70;99.90
13123;DHT22;6627;50.920;12.050;2022-08-06T05:09:46;12.60;99.90
13123;DHT22;6627;50.920;12.050;2022-08-06T05:12:19;12.50;99.90
13123;DHT22;6627;50.920;12.050;2022-08-06T05:14:54;12.50;99.90
13123;DHT22;6627;50.920;12.050;2022-08-06T05:17:30;12.40;99.90
13123;DHT22;6627;50.920;12.050;2022-08-06T05:20:04;12.40;99.90
13123;DHT22;6627;50.920;12.050;2022-08-06T05:22:39;12.40;99.90
13123;DHT22;6627;50.920;12.050;2022-08-06T05:25:11;12.50;99.90
13123;DHT22;6627;50.920;12.050;2022-08-06T05:27:39;12.50;99.90
13123;DHT22;6627;50.920;12.050;2022-08-06T05:30:08;12.60;99.90
13123;DHT22;6627;50.920;12.050;2022-08-06T05:32:40;13.00;99.90
13123;DHT22;6627;50.920;12.050;2022-08-06T05:35:08;13.00;99.90
13123;DHT22;6627;50.920;12.050;2022-08-06T05:37:35;12.60;99.90
13123;DHT22;6627;50.920;12.050;2022-08-06T05:40:05;12.70;99.90
13123;DHT22;6627;50.920;12.050;2022-08-06T05:42:35;12.50;99.90
13123;DHT22;6627;50.920;12.050;2022-08-06T05:45:02;12.50;99.90
13123;DHT22;6627;50.920;12.050;2022-08-06T05:47:34;12.40;99.90
13123;DHT22;6627;50.920;12.050;2022-08-06T05:50:06;12.40;99.90
13123;DHT22;6627;50.920;12.050;2022-08-06T05:52:41;12.50;99.90
13123;DHT22;6627;50.920;12.050;2022-08-06T05:55:25;12.50;99.90
13123;DHT22;6627;50.920;12.050;2022-08-06T05:58:00;12.80;99.90
13123;DHT22;6627;50.920;12.050;2022-08-06T06:00:31;13.00;99.90
13123;DHT22;6627;50.920;12.050;2022-08-06T06:03:01;13.30;99.90
13123;DHT22;6627;50.920;12.050;2022-08-06T06:05:31;13.60;99.90
13123;DHT22;6627;50.920;12.050;2022-08-06T06:07:59;13.80;99.90
13123;DHT22;6627;50.920;12.050;2022-08-06T06:10:27;13.80;99.90
13123;DHT22;6627;50.920;12.050;2022-08-06T06:12:58;13.90;99.90
13123;DHT22;6627;50.920;12.050;2022-08-06T06:15:27;14.00;99.90
13123;DHT22;6627;50.920;12.050;2022-08-06T06:18:03;14.10;99.90
13123;DHT22;6627;50.920;12.050;2022-08-06T06:20:46;14.30;99.90
13123;DHT22;6627;50.920;12.050;2022-08-06T06:23:23;14.30;99.90
13123;DHT22;6627;50.920;12.050;2022-08-06T06:26:02;14.30;99.90
13123;DHT22;6627;50.920;12.050;2022-08-06T06:28:54;14.00;99.90
13123;DHT22;6627;50.920;12.050;2022-08-06T06:31:35;14.10;99.90
13123;DHT22;6627;50.920;12.050;2022-08-06T06:34:14;14.00;99.90
13123;DHT22;6627;50.920;12.050;2022-08-06T06:36:51;14.20;99.90
13123;DHT22;6627;50.920;12.050;2022-08-06T06:39:26;14.30;99.90
13123;DHT22;6627;50.920;12.050;2022-08-06T06:42:11;14.20;99.90
13123;DHT22;6627;50.920;12.050;2022-08-06T06:44:49;14.10;99.90
13123;DHT22;6627;50.920;12.050;2022-08-06T06:47:37;14.10;99.90
13123;DHT22;6627;50.920;12.050;2022-08-06T06:50:16;14.00;99.90
13123;DHT22;6627;50.920;12.050;2022-08-06T06:52:49;14.20;99.90
13123;DHT22;6627;50.920;12.050;2022-08-06T06:55:23;14.40;99.90
13123;DHT22;6627;50.920;12.050;2022-08-06T06:58:03;14.50;99.90
13123;DHT22;6627;50.920;12.050;2022-08-06T07:00:36;14.60;99.90
13123;DHT22;6627;50.920;12.050;2022-08-06T07:03:05;14.90;99.90
13123;DHT22;6627;50.920;12.050;2022-08-06T07:05:35;14.90;99.90
13123;DHT22;6627;50.920;12.050;2022-08-06T07:08:05;15.40;99.90
13123;DHT22;6627;50.920;12.050;2022-08-06T07:10:35;15.70;99.90
13123;DHT22;6627;50.920;12.050;2022-08-06T07:13:06;15.60;99.90
13123;DHT22;6627;50.920;12.050;2022-08-06T07:15:38;15.70;99.90
13123;DHT22;6627;50.920;12.050;2022-08-06T07:18:08;15.30;99.90
13123;DHT22;6627;50.920;12.050;2022-08-06T07:20:36;15.00;99.90
13123;DHT22;6627;50.920;12.050;2022-08-06T07:23:07;15.60;99.90
13123;DHT22;6627;50.920;12.050;2022-08-06T07:25:40;16.20;99.90
13123;DHT22;6627;50.920;12.050;2022-08-06T07:28:11;16.80;99.90
13123;DHT22;6627;50.920;12.050;2022-08-06T07:30:41;16.30;99.90
13123;DHT22;6627;50.920;12.050;2022-08-06T07:33:10;16.70;99.90
13123;DHT22;6627;50.920;12.050;2022-08-06T07:35:41;16.70;99.90
13123;DHT22;6627;50.920;12.050;2022-08-06T07:38:14;16.90;99.90
13123;DHT22;6627;50.920;12.050;2022-08-06T07:40:48;17.00;99.90
13123;DHT22;6627;50.920;12.050;2022-08-06T07:43:21;17.00;99.90
13123;DHT22;6627;50.920;12.050;2022-08-06T07:45:54;17.30;99.90
13123;DHT22;6627;50.920;12.050;2022-08-06T07:48:26;17.60;99.90
13123;DHT22;6627;50.920;12.050;2022-08-06T07:50:58;18.20;99.90
13123;DHT22;6627;50.920;12.050;2022-08-06T07:53:29;18.80;99.90
13123;DHT22;6627;50.920;12.050;2022-08-06T07:55:57;19.10;99.90
13123;DHT22;6627;50.920;12.050;2022-08-06T07:58:26;18.90;99.90
13123;DHT22;6627;50.920;12.050;2022-08-06T08:00:55;18.30;99.90
13123;DHT22;6627;50.920;12.050;2022-08-06T08:03:23;18.90;99.90
13123;DHT22;6627;50.920;12.050;2022-08-06T08:06:09;18.80;99.90
13123;DHT22;6627;50.920;12.050;2022-08-06T08:08:49;18.60;99.90
13123;DHT22;6627;50.920;12.050;2022-08-06T08:11:20;18.80;99.90
13123;DHT22;6627;50.920;12.050;2022-08-06T08:13:51;18.80;99.90
13123;DHT22;6627;50.920;12.050;2022-08-06T08:16:22;19.40;99.90
13123;DHT22;6627;50.920;12.050;2022-08-06T08:18:49;18.10;99.90
13123;DHT22;6627;50.920;12.050;2022-08-06T08:21:16;18.10;99.90
13123;DHT22;6627;50.920;12.050;2022-08-06T08:23:46;18.50;99.90
13123;DHT22;6627;50.920;12.050;2022-08-06T08:26:14;17.80;99.90
13123;DHT22;6627;50.920;12.050;2022-08-06T08:28:41;17.50;99.90
13123;DHT22;6627;50.920;12.050;2022-08-06T08:31:10;17.40;99.90
13123;DHT22;6627;50.920;12.050;2022-08-06T08:33:40;18.40;99.90
13123;DHT22;6627;50.920;12.050;2022-08-06T08:36:08;18.40;99.90
13123;DHT22;6627;50.920;12.050;2022-08-06T08:38:35;18.50;99.90
13123;DHT22;6627;50.920;12.050;2022-08-06T08:41:04;18.00;99.90
13123;DHT22;6627;50.920;12.050;2022-08-06T08:43:40;18.00;99.90
13123;DHT22;6627;50.920;12.050;2022-08-06T08:46:11;18.80;99.90
13123;DHT22;6627;50.920;12.050;2022-08-06T08:48:42;18.60;99.90
13123;DHT22;6627;50.920;12.050;2022-08-06T08:51:11;17.90;99.90
13123;DHT22;6627;50.920;12.050;2022-08-06T08:53:44;17.80;99.90
13123;DHT22;6627;50.920;12.050;2022-08-06T08:56:16;17.40;99.90
13123;DHT22;6627;50.920;12.050;2022-08-06T08:58:43;17.70;99.90
13123;DHT22;6627;50.920;12.050;2022-08-06T09:01:11;18.30;99.90
13123;DHT22;6627;50.920;12.050;2022-08-06T09:03:41;18.70;99.90
13123;DHT22;6627;50.920;12.050;2022-08-06T09:06:08;19.00;99.90
13123;DHT22;6627;50.920;12.050;2022-08-06T09:08:35;19.30;99.90
13123;DHT22;6627;50.920;12.050;2022-08-06T09:11:03;18.80;99.90
13123;DHT22;6627;50.920;12.050;2022-08-06T09:13:32;18.60;99.90
13123;DHT22;6627;50.920;12.050;2022-08-06T09:16:00;18.40;99.90
13123;DHT22;6627;50.920;12.050;2022-08-06T09:18:28;18.40;99.90
13123;DHT22;6627;50.920;12.050;2022-08-06T09:20:58;18.30;99.90
13123;DHT22;6627;50.920;12.050;2022-08-06T09:23:27;18.00;99.90
13123;DHT22;6627;50.920;12.050;2022-08-06T09:25:55;17.60;99.90
13123;DHT22;6627;50.920;12.050;2022-08-06T09:28:31;18.00;99.90
13123;DHT22;6627;50.920;12.050;2022-08-06T09:31:03;18.60;99.90
13123;DHT22;6627;50.920;12.050;2022-08-06T09:33:35;19.10;99.90
13123;DHT22;6627;50.920;12.050;2022-08-06T09:36:07;19.60;99.90
13123;DHT22;6627;50.920;12.050;2022-08-06T09:38:45;19.70;99.90
13123;DHT22;6627;50.920;12.050;2022-08-06T09:41:15;19.90;99.90
13123;DHT22;6627;50.920;12.050;2022-08-06T09:43:44;20.00;99.90
13123;DHT22;6627;50.920;12.050;2022-08-06T09:46:12;20.10;99.90
13123;DHT22;6627;50.920;12.050;2022-08-06T09:48:55;20.20;99.90
13123;DHT22;6627;50.920;12.050;2022-08-06T09:51:26;19.90;99.90
13123;DHT22;6627;50.920;12.050;2022-08-06T09:53:54;20.10;99.90
13123;DHT22;6627;50.920;12.050;2022-08-06T09:56:22;20.20;99.90
13123;DHT22;6627;50.920;12.050;2022-08-06T09:58:50;20.20;99.90
13123;DHT22;6627;50.920;12.050;2022-08-06T10:01:24;20.40;99.90
13123;DHT22;6627;50.920;12.050;2022-08-06T10:03:54;19.70;99.90
13123;DHT22;6627;50.920;12.050;2022-08-06T10:06:25;19.10;99.90
13123;DHT22;6627;50.920;12.050;2022-08-06T10:09:07;19.10;99.90
13123;DHT22;6627;50.920;12.050;2022-08-06T10:11:38;19.50;99.90
13123;DHT22;6627;50.920;12.050;2022-08-06T10:14:20;19.80;99.90
13123;DHT22;6627;50.920;12.050;2022-08-06T10:17:03;20.10;99.90
13123;DHT22;6627;50.920;12.050;2022-08-06T10:19:32;20.20;99.90
13123;DHT22;6627;50.920;12.050;2022-08-06T10:22:04;20.40;99.90
13123;DHT22;6627;50.920;12.050;2022-08-06T10:24:36;20.30;99.90
13123;DHT22;6627;50.920;12.050;2022-08-06T10:27:06;20.50;99.90
13123;DHT22;6627;50.920;12.050;2022-08-06T10:29:36;20.80;99.90
13123;DHT22;6627;50.920;12.050;2022-08-06T10:32:09;21.00;99.90
13123;DHT22;6627;50.920;12.050;2022-08-06T10:34:39;21.10;99.90
13123;DHT22;6627;50.920;12.050;2022-08-06T10:37:10;20.90;99.20
13123;DHT22;6627;50.920;12.050;2022-08-06T10:39:42;20.60;99.90
13123;DHT22;6627;50.920;12.050;2022-08-06T10:42:14;20.60;99.90
13123;DHT22;6627;50.920;12.050;2022-08-06T10:44:43;20.60;99.20
13123;DHT22;6627;50.920;12.050;2022-08-06T10:47:12;20.90;99.70
13123;DHT22;6627;50.920;12.050;2022-08-06T10:49:41;21.10;99.10
13123;DHT22;6627;50.920;12.050;2022-08-06T10:52:12;21.20;98.00
13123;DHT22;6627;50.920;12.050;2022-08-06T10:54:40;21.40;97.30
13123;DHT22;6627;50.920;12.050;2022-08-06T10:57:08;21.30;99.90
13123;DHT22;6627;50.920;12.050;2022-08-06T10:59:40;21.30;99.90
13123;DHT22;6627;50.920;12.050;2022-08-06T11:02:16;21.10;97.70
13123;DHT22;6627;50.920;12.050;2022-08-06T11:04:54;21.00;95.30
13123;DHT22;6627;50.920;12.050;2022-08-06T11:07:54;21.00;93.30
13123;DHT22;6627;50.920;12.050;2022-08-06T11:10:53;20.90;98.40
13123;DHT22;6627;50.920;12.050;2022-08-06T11:13:36;21.10;98.90
13123;DHT22;6627;50.920;12.050;2022-08-06T11:16:22;21.40;94.70
13123;DHT22;6627;50.920;12.050;2022-08-06T11:19:00;21.20;91.80
13123;DHT22;6627;50.920;12.050;2022-08-06T11:21:38;21.10;95.30
13123;DHT22;6627;50.920;12.050;2022-08-06T11:24:08;21.70;96.00
13123;DHT22;6627;50.920;12.050;2022-08-06T11:26:38;21.90;90.10
13123;DHT22;6627;50.920;12.050;2022-08-06T11:29:07;21.80;93.20
13123;DHT22;6627;50.920;12.050;2022-08-06T11:31:39;21.60;86.50
13123;DHT22;6627;50.920;12.050;2022-08-06T11:34:10;21.80;89.00
13123;DHT22;6627;50.920;12.050;2022-08-06T11:36:46;21.70;87.80
13123;DHT22;6627;50.920;12.050;2022-08-06T11:39:17;21.70;87.30
13123;DHT22;6627;50.920;12.050;2022-08-06T11:41:50;21.30;91.50
13123;DHT22;6627;50.920;12.050;2022-08-06T11:44:19;21.40;92.20
13123;DHT22;6627;50.920;12.050;2022-08-06T11:46:48;21.60;92.80
13123;DHT22;6627;50.920;12.050;2022-08-06T11:49:36;21.70;90.30
13123;DHT22;6627;50.920;12.050;2022-08-06T11:52:05;21.60;87.30
13123;DHT22;6627;50.920;12.050;2022-08-06T11:54:36;21.80;91.90
13123;DHT22;6627;50.920;12.050;2022-08-06T11:57:26;21.60;93.60
13123;DHT22;6627;50.920;12.050;2022-08-06T12:00:19;22.00;94.20
13123;DHT22;6627;50.920;12.050;2022-08-06T12:02:57;21.90;86.30
13123;DHT22;6627;50.920;12.050;2022-08-06T12:05:41;21.90;86.20
13123;DHT22;6627;50.920;12.050;2022-08-06T12:08:21;21.80;84.50
13123;DHT22;6627;50.920;12.050;2022-08-06T12:11:29;22.00;83.40
13123;DHT22;6627;50.920;12.050;2022-08-06T12:13:57;22.20;87.40
13123;DHT22;6627;50.920;12.050;2022-08-06T12:16:30;22.70;90.50
13123;DHT22;6627;50.920;12.050;2022-08-06T12:19:05;22.40;84.90
13123;DHT22;6627;50.920;12.050;2022-08-06T12:21:40;22.50;84.80
13123;DHT22;6627;50.920;12.050;2022-08-06T12:24:10;22.50;88.20
13123;DHT22;6627;50.920;12.050;2022-08-06T12:26:39;22.40;87.10
13123;DHT22;6627;50.920;12.050;2022-08-06T12:29:07;22.40;87.80
13123;DHT22;6627;50.920;12.050;2022-08-06T12:31:37;22.50;80.00
13123;DHT22;6627;50.920;12.050;2022-08-06T12:34:06;22.50;79.40
13123;DHT22;6627;50.920;12.050;2022-08-06T12:36:35;22.50;81.70
13123;DHT22;6627;50.920;12.050;2022-08-06T12:39:06;22.30;76.60
13123;DHT22;6627;50.920;12.050;2022-08-06T12:41:40;22.50;82.80
13123;DHT22;6627;50.920;12.050;2022-08-06T12:44:09;22.30;82.60
13123;DHT22;6627;50.920;12.050;2022-08-06T12:46:39;22.60;84.40
13123;DHT22;6627;50.920;12.050;2022-08-06T12:49:06;22.60;83.90
13123;DHT22;6627;50.920;12.050;2022-08-06T12:51:34;22.70;76.10
13123;DHT22;6627;50.920;12.050;2022-08-06T12:54:05;22.80;82.80
13123;DHT22;6627;50.920;12.050;2022-08-06T12:56:36;22.40;75.40
13123;DHT22;6627;50.920;12.050;2022-08-06T12:59:10;22.30;74.90
13123;DHT22;6627;50.920;12.050;2022-08-06T13:01:43;22.30;76.70
13123;DHT22;6627;50.920;12.050;2022-08-06T13:04:13;22.70;79.00
13123;DHT22;6627;50.920;12.050;2022-08-06T13:06:41;22.90;78.10
13123;DHT22;6627;50.920;12.050;2022-08-06T13:09:09;22.90;73.40
13123;DHT22;6627;50.920;12.050;2022-08-06T13:11:36;22.70;76.60
13123;DHT22;6627;50.920;12.050;2022-08-06T13:14:09;22.70;78.50
13123;DHT22;6627;50.920;12.050;2022-08-06T13:16:41;22.80;79.00
13123;DHT22;6627;50.920;12.050;2022-08-06T13:19:12;22.60;71.90
13123;DHT22;6627;50.920;12.050;2022-08-06T13:21:42;22.80;73.20
13123;DHT22;6627;50.920;12.050;2022-08-06T13:24:12;22.80;71.00
13123;DHT22;6627;50.920;12.050;2022-08-06T13:26:52;22.80;72.50
13123;DHT22;6627;50.920;12.050;2022-08-06T13:29:23;22.70;66.90
13123;DHT22;6627;50.920;12.050;2022-08-06T13:32:03;22.80;75.90
13123;DHT22;6627;50.920;12.050;2022-08-06T13:34:45;22.90;71.40
13123;DHT22;6627;50.920;12.050;2022-08-06T13:37:13;22.90;70.80
13123;DHT22;6627;50.920;12.050;2022-08-06T13:39:49;23.00;68.00
13123;DHT22;6627;50.920;12.050;2022-08-06T13:42:17;23.30;73.90
13123;DHT22;6627;50.920;12.050;2022-08-06T13:44:46;23.10;68.80
13123;DHT22;6627;50.920;12.050;2022-08-06T13:47:14;23.10;67.50
13123;DHT22;6627;50.920;12.050;2022-08-06T13:49:53;23.10;72.10
13123;DHT22;6627;50.920;12.050;2022-08-06T13:52:20;22.70;65.00
13123;DHT22;6627;50.920;12.050;2022-08-06T13:54:48;22.90;71.90
13123;DHT22;6627;50.920;12.050;2022-08-06T13:57:16;23.20;70.80
13123;DHT22;6627;50.920;12.050;2022-08-06T13:59:43;23.10;63.50
13123;DHT22;6627;50.920;12.050;2022-08-06T14:02:11;23.00;66.80
13123;DHT22;6627;50.920;12.050;2022-08-06T14:04:39;22.90;66.70
13123;DHT22;6627;50.920;12.050;2022-08-06T14:07:06;23.00;66.10
13123;DHT22;6627;50.920;12.050;2022-08-06T14:09:34;22.70;64.50
13123;DHT22;6627;50.920;12.050;2022-08-06T14:12:01;22.80;67.00
13123;DHT22;6627;50.920;12.050;2022-08-06T14:14:32;22.70;68.10
13123;DHT22;6627;50.920;12.050;2022-08-06T14:17:00;22.80;70.00
13123;DHT22;6627;50.920;12.050;2022-08-06T14:19:29;22.90;66.20
13123;DHT22;6627;50.920;12.050;2022-08-06T14:21:56;23.20;66.10
13123;DHT22;6627;50.920;12.050;2022-08-06T14:24:23;22.90;65.50
13123;DHT22;6627;50.920;12.050;2022-08-06T14:26:51;22.90;62.20
13123;DHT22;6627;50.920;12.050;2022-08-06T14:29:18;23.20;65.50
13123;DHT22;6627;50.920;12.050;2022-08-06T14:31:45;23.30;65.50
13123;DHT22;6627;50.920;12.050;2022-08-06T14:34:12;23.40;65.50
13123;DHT22;6627;50.920;12.050;2022-08-06T14:36:41;23.20;62.60
13123;DHT22;6627;50.920;12.050;2022-08-06T14:39:09;22.90;61.20
13123;DHT22;6627;50.920;12.050;2022-08-06T14:41:37;23.10;60.10
13123;DHT22;6627;50.920;12.050;2022-08-06T14:44:22;22.80;61.40
13123;DHT22;6627;50.920;12.050;2022-08-06T14:47:07;22.80;65.50
13123;DHT22;6627;50.920;12.050;2022-08-06T14:49:35;23.00;60.30
13123;DHT22;6627;50.920;12.050;2022-08-06T14:52:04;23.20;62.70
13123;DHT22;6627;50.920;12.050;2022-08-06T14:54:31;23.20;64.50
13123;DHT22;6627;50.920;12.050;2022-08-06T14:57:00;23.10;62.70
13123;DHT22;6627;50.920;12.050;2022-08-06T14:59:28;22.90;66.10
13123;DHT22;6627;50.920;12.050;2022-08-06T15:01:57;22.90;65.50
13123;DHT22;6627;50.920;12.050;2022-08-06T15:04:25;22.70;65.00
13123;DHT22;6627;50.920;12.050;2022-08-06T15:06:53;22.90;66.80
13123;DHT22;6627;50.920;12.050;2022-08-06T15:09:23;23.00;65.30
13123;DHT22;6627;50.920;12.050;2022-08-06T15:11:50;22.80;66.00
13123;DHT22;6627;50.920;12.050;2022-08-06T15:14:17;22.50;65.10
13123;DHT22;6627;50.920;12.050;2022-08-06T15:16:44;21.90;65.70
13123;DHT22;6627;50.920;12.050;2022-08-06T15:19:11;21.60;67.20
13123;DHT22;6627;50.920;12.050;2022-08-06T15:21:39;22.00;64.00
13123;DHT22;6627;50.920;12.050;2022-08-06T15:24:06;22.60;62.50
13123;DHT22;6627;50.920;12.050;2022-08-06T15:26:35;22.60;62.00
13123;DHT22;6627;50.920;12.050;2022-08-06T15:31:30;22.10;63.10
13123;DHT22;6627;50.920;12.050;2022-08-06T15:33:57;22.50;62.10
13123;DHT22;6627;50.920;12.050;2022-08-06T15:36:25;22.60;59.90
13123;DHT22;6627;50.920;12.050;2022-08-06T15:38:52;22.80;60.20
13123;DHT22;6627;50.920;12.050;2022-08-06T15:41:20;22.80;66.10
13123;DHT22;6627;50.920;12.050;2022-08-06T15:43:50;22.90;60.00
13123;DHT22;6627;50.920;12.050;2022-08-06T15:46:18;23.00;66.30
13123;DHT22;6627;50.920;12.050;2022-08-06T15:48:46;23.00;62.10
13123;DHT22;6627;50.920;12.050;2022-08-06T15:51:13;22.90;63.80
13123;DHT22;6627;50.920;12.050;2022-08-06T15:53:41;23.00;62.60
13123;DHT22;6627;50.920;12.050;2022-08-06T15:56:08;23.00;61.50
13123;DHT22;6627;50.920;12.050;2022-08-06T15:58:35;23.00;61.00
13123;DHT22;6627;50.920;12.050;2022-08-06T16:01:03;22.90;65.80